• Join FlightAware (Why Join?)
  • Login
  • US Flag 
10:43PM EST


 

Airport Tracker/Info


-or-


 

Live Flight TrackerFlight Track Log ✈ KAP82 ✈ 28-Aug-2013 ✈ KBOS - KALB

Flight Track Log - Related Links

Times and Time Zones

All times are in EDT time to prevent confusion due to time zone crossing. See the KAP82 flight status page for this flight to view local times or setup timezone preferences in your user account.

Time Position Orientation Groundspeed Altitude Reporting Facility
EDT Latitude Longitude Course Direction KTS MPH feet Rate Location/Type
09:22AM 42.3833 -71.0000 270° West 112 129 500  Level KA90
09:22AM 42.3833 -71.0167 270° West 111 128 800 660 Climbing KA90
09:23AM 42.3833 -71.0667 270° West 118 136 1,500 660 Climbing KA90
09:24AM 42.3833 -71.1000 270° West 119 137 2,200 600 Climbing KA90
09:25AM 42.3833 -71.1500 270° West 124 143 2,700 540 Climbing KA90
09:26AM 42.3667 -71.2000 246° West 131 151 3,300 540 Climbing KA90
09:27AM 42.3667 -71.2333 270° West 131 151 3,800 480 Climbing KA90
09:28AM 42.3500 -71.2833 246° West 140 161 4,300 480 Climbing KA90
09:29AM 42.3500 -71.3333 270° West 141 162 4,800 480 Climbing KA90
09:30AM 42.3333 -71.3833 246° West 137 158 5,300 420 Climbing KA90
09:31AM 42.3333 -71.4500 270° West 141 162 5,800 480 Climbing KA90
09:32AM 42.3192 -71.4769 235° Southwest 140 161 6,100 480 Climbing Boston Center
09:33AM 42.3072 -71.5531 258° West 139 160 6,900 420 Climbing Boston Center
09:34AM 42.2972 -71.6092 256° West 142 163 7,300 360 Climbing Boston Center
09:35AM 42.2914 -71.6542 260° West 147 169 7,700 360 Climbing Boston Center
09:36AM 42.2814 -71.7133 257° West 151 174 8,100 180 Climbing Boston Center
09:37AM 42.2692 -71.7722 254° West 166 191 8,100  Level Boston Center
09:38AM 42.2633 -71.8314 262° West 162 186 8,100  Level Boston Center
09:39AM 42.2658 -71.8931 273° West 163 188 8,100  Level Boston Center
09:41AM 42.2681 -71.9658 272° West 161 185 8,100  Level Boston Center
09:41AM 42.2703 -72.0164 273° West 162 186 8,100  Level Boston Center
09:42AM 42.2706 -72.0781 270° West 161 185 8,100  Level Boston Center
09:43AM 42.2728 -72.1369 273° West 161 185 8,100  Level Boston Center
09:45AM 42.2750 -72.2156 272° West 160 184 8,100  Level Boston Center
09:45AM 42.2878 -72.2578 292° West 161 185 8,100  Level Boston Center
09:47AM 42.3108 -72.3222 296° West 161 185 8,100  Level Boston Center
09:48AM 42.3275 -72.3783 292° West 161 185 8,100  Level Boston Center
09:48AM 42.3400 -72.4233 291° West 162 186 8,100 -60 Level Boston Center
09:49AM 42.3567 -72.4739 294° West 158 182 8,000  Descending Boston Center
09:50AM 42.3733 -72.5356 290° West 159 183 8,100  Climbing Boston Center
09:51AM 42.3878 -72.5833 292° West 158 182 8,000  Descending Boston Center
09:52AM 42.4086 -72.6481 294° West 158 182 8,100  Climbing Boston Center
09:54AM 42.4250 -72.7017 293° West 158 182 8,100 -60 Level Boston Center
09:54AM 42.4394 -72.7553 290° West 156 180 8,000  Descending Boston Center
09:56AM 42.4644 -72.8314 294° West 155 178 8,100  Climbing Boston Center
09:57AM 42.4786 -72.8878 289° West 155 178 8,000 -60 Descending Boston Center
09:58AM 42.4953 -72.9386 294° West 155 178 8,000  Level Boston Center
09:59AM 42.5117 -72.9922 293° West 156 180 8,000  Level Boston Center
10:00AM 42.5281 -73.0486 292° West 158 182 8,000  Level Boston Center
10:01AM 42.5381 -73.1078 283° West 159 183 8,000 -240 Level Boston Center
10:02AM 42.5419 -73.1700 275° West 176 203 7,600 -420 Descending Boston Center
10:03AM 42.5414 -73.2403 269° West 174 200 7,200 -360 Descending Boston Center
10:04AM 42.5431 -73.3053 272° West 174 200 6,900 -300 Descending Boston Center
10:05AM 42.5486 -73.3700 277° West 170 196 6,600 -480 Descending Boston Center
10:06AM 42.5481 -73.4378 269° West 176 203 6,000 -600 Descending Boston Center
10:07AM 42.5517 -73.5025 274° West 180 207 5,400 -540 Descending Boston Center
10:08AM 42.5511 -73.5731 269° West 179 206 5,000 -480 Descending Boston Center
10:09AM 42.5422 -73.6319 258° West 174 200 4,500 -600 Descending Boston Center
10:10AM 42.5414 -73.6997 269° West 186 214 3,900 -660 Descending Boston Center
10:11AM 42.5636 -73.7678 294° West 180 207 3,200 -540 Descending Boston Center
10:12AM 42.5903 -73.8022 316° Northwest 147 169 2,900 -420 Descending Boston Center
10:13AM 42.6297 -73.8003 North 121 139 2,400 -540 Descending Boston Center
10:14AM 42.6653 -73.8011 359° North 124 143 1,800 -660 Descending Boston Center
10:15AM 42.7006 -73.8075 352° North 121 139 1,100 -660 Descending Boston Center
10:16AM 42.7319 -73.8081 359° North 112 129 500 -600 Descending Boston Center
10:18AM 42.7491 -73.8020 15° North  Level Estimated
10:25AM 42.7491 -73.8020 304° West  Level Estimated
10:26AM 42.7491 -73.8020 304° West  Level Estimated
10:27AM 42.7491 -73.8020 304° West  Level Estimated